createdAt,value
2019-01-13T00:00:11.753Z,40.44
2019-01-13T00:01:08.323Z,40.44
2019-01-13T00:02:08.159Z,40.53
2019-01-13T00:03:08.112Z,40.53
2019-01-13T00:04:08.112Z,40.44
2019-01-13T00:05:08.020Z,40.53
2019-01-13T00:06:07.978Z,40.34
2019-01-13T00:07:07.969Z,40.53
2019-01-13T00:08:07.894Z,40.44
2019-01-13T00:09:07.847Z,40.44
2019-01-13T00:10:07.854Z,40.44
2019-01-13T00:11:07.763Z,40.44
2019-01-13T00:12:07.722Z,40.44
2019-01-13T00:13:07.672Z,40.44
2019-01-13T00:14:07.635Z,40.44
2019-01-13T00:15:07.591Z,40.34
2019-01-13T00:16:07.543Z,40.34
2019-01-13T00:17:07.498Z,40.44
2019-01-13T00:18:07.455Z,40.44
2019-01-13T00:19:07.411Z,40.34
2019-01-13T00:20:07.367Z,40.44
2019-01-13T00:21:07.336Z,40.44
2019-01-13T00:22:07.277Z,40.53
2019-01-13T00:23:07.244Z,40.44
2019-01-13T00:24:07.191Z,40.53
2019-01-13T00:25:07.147Z,40.53
2019-01-13T00:26:07.101Z,40.34
2019-01-13T00:27:07.064Z,40.32
2019-01-13T00:28:07.013Z,40.34
2019-01-13T00:29:08.100Z,40.53
2019-01-13T00:30:06.932Z,40.53
2019-01-13T00:31:06.884Z,40.44
2019-01-13T00:32:06.859Z,40.32
2019-01-13T00:33:06.808Z,40.42
2019-01-13T00:34:06.754Z,40.32
2019-01-13T00:35:06.709Z,40.42
2019-01-13T00:36:06.664Z,40.61
2019-01-13T00:37:06.620Z,40.42
2019-01-13T00:38:06.576Z,40.51
2019-01-13T00:39:06.536Z,40.32
2019-01-13T00:40:06.487Z,40.51
2019-01-13T00:41:06.443Z,40.61
2019-01-13T00:42:06.403Z,40.51
2019-01-13T00:43:06.357Z,40.61
2019-01-13T00:44:06.358Z,40.61
2019-01-13T00:45:06.270Z,40.32
2019-01-13T00:46:06.229Z,40.51
2019-01-13T00:47:06.184Z,40.42
2019-01-13T00:48:06.139Z,40.32
2019-01-13T00:49:06.092Z,40.32
2019-01-13T00:50:06.044Z,40.32
2019-01-13T00:51:05.998Z,40.51
2019-01-13T00:52:05.961Z,40.51
2019-01-13T00:53:05.935Z,40.61
2019-01-13T00:54:05.870Z,40.61
2019-01-13T00:55:05.859Z,40.32
2019-01-13T00:56:05.781Z,40.70
2019-01-13T00:57:05.739Z,40.61
2019-01-13T00:58:05.694Z,40.61
2019-01-13T00:59:05.651Z,40.51
2019-01-13T01:00:05.603Z,40.61
2019-01-13T01:01:05.559Z,40.51
2019-01-13T01:02:05.520Z,40.32
2019-01-13T01:03:05.469Z,40.12
2019-01-13T01:04:05.426Z,40.42
2019-01-13T01:05:05.392Z,40.22
2019-01-13T01:06:05.351Z,40.22
2019-01-13T01:07:05.304Z,40.51
2019-01-13T01:08:05.256Z,40.61
2019-01-13T01:09:05.223Z,40.61
2019-01-13T01:10:05.169Z,40.22
2019-01-13T01:11:05.132Z,40.42
2019-01-13T01:12:05.082Z,40.42
2019-01-13T01:13:05.039Z,40.51
2019-01-13T01:14:04.998Z,40.32
2019-01-13T01:15:04.997Z,40.61
2019-01-13T01:16:04.899Z,40.22
2019-01-13T01:17:04.917Z,40.32
2019-01-13T01:18:04.814Z,40.61
2019-01-13T01:19:04.783Z,40.61
2019-01-13T01:20:04.722Z,40.32
2019-01-13T01:21:04.679Z,40.39
2019-01-13T01:22:04.634Z,40.20
2019-01-13T01:23:04.595Z,40.39
2019-01-13T01:24:04.549Z,40.20
2019-01-13T01:25:04.506Z,40.30
2019-01-13T01:26:04.468Z,40.30
2019-01-13T01:27:04.421Z,40.30
2019-01-13T01:28:04.375Z,40.20
2019-01-13T01:29:04.329Z,40.59
2019-01-13T01:30:04.353Z,40.59
2019-01-13T01:31:04.240Z,40.30
2019-01-13T01:32:04.243Z,40.59
2019-01-13T01:33:04.155Z,40.69
2019-01-13T01:34:04.112Z,40.59
2019-01-13T01:35:04.065Z,40.59
2019-01-13T01:36:04.023Z,40.69
2019-01-13T01:37:03.996Z,40.59
2019-01-13T01:38:03.931Z,40.69
2019-01-13T01:39:03.885Z,40.69
2019-01-13T01:40:03.847Z,40.69
2019-01-13T01:41:03.796Z,40.69
2019-01-13T01:42:03.756Z,40.78
2019-01-13T01:43:03.712Z,40.69
2019-01-13T01:44:03.663Z,40.69
2019-01-13T01:45:03.624Z,40.78
2019-01-13T01:46:03.573Z,40.88
2019-01-13T01:47:03.533Z,40.78
2019-01-13T01:48:03.501Z,40.88
2019-01-13T01:49:03.458Z,40.78
2019-01-13T01:50:03.401Z,40.88
2019-01-13T01:51:03.352Z,40.88
2019-01-13T01:52:03.314Z,40.78
2019-01-13T01:53:03.269Z,40.78
2019-01-13T01:54:03.225Z,40.88
2019-01-13T01:55:03.180Z,40.88
2019-01-13T01:56:03.149Z,40.78
2019-01-13T01:57:03.096Z,40.78
2019-01-13T01:58:03.047Z,40.69
2019-01-13T01:59:03.000Z,40.88
2019-01-13T02:00:02.966Z,40.78
2019-01-13T02:01:02.912Z,40.78
2019-01-13T02:02:02.930Z,40.97
2019-01-13T02:03:02.852Z,40.88
2019-01-13T02:04:02.786Z,41.07
2019-01-13T02:05:02.736Z,41.07
2019-01-13T02:06:02.691Z,41.07
2019-01-13T02:07:02.666Z,41.05
2019-01-13T02:08:02.605Z,40.97
2019-01-13T02:09:02.561Z,41.17
2019-01-13T02:10:02.517Z,40.49
2019-01-13T02:11:02.471Z,41.14
2019-01-13T02:12:02.434Z,41.07
2019-01-13T02:13:02.379Z,40.97
2019-01-13T02:14:02.342Z,41.07
2019-01-13T02:15:02.294Z,41.27
2019-01-13T02:16:02.255Z,41.27
2019-01-13T02:17:02.203Z,41.34
2019-01-13T02:18:02.163Z,41.46
2019-01-13T02:19:02.135Z,41.53
2019-01-13T02:20:02.073Z,41.63
2019-01-13T02:21:02.026Z,41.36
2019-01-13T02:22:01.986Z,41.72
2019-01-13T02:23:01.938Z,41.75
2019-01-13T02:24:01.899Z,41.72
2019-01-13T02:25:01.850Z,41.82
2019-01-13T02:26:01.804Z,41.72
2019-01-13T02:27:01.766Z,41.82
2019-01-13T02:28:01.719Z,41.82
2019-01-13T02:29:01.831Z,41.63
2019-01-13T02:30:01.643Z,41.63
2019-01-13T02:31:01.593Z,41.75
2019-01-13T02:32:01.541Z,41.63
2019-01-13T02:33:01.495Z,41.72
2019-01-13T02:34:01.453Z,41.72
2019-01-13T02:35:01.406Z,41.75
2019-01-13T02:36:01.360Z,41.75
2019-01-13T02:37:01.323Z,41.75
2019-01-13T02:38:01.274Z,41.72
2019-01-13T02:39:01.227Z,41.53
2019-01-13T02:40:01.190Z,41.53
2019-01-13T02:41:01.187Z,41.63
2019-01-13T02:42:01.093Z,41.72
2019-01-13T02:43:01.053Z,41.72
2019-01-13T02:44:01.005Z,41.53
2019-01-13T02:45:00.959Z,41.72
2019-01-13T02:46:00.916Z,41.72
2019-01-13T02:47:00.869Z,41.72
2019-01-13T02:48:00.829Z,41.63
2019-01-13T02:49:00.827Z,41.53
2019-01-13T02:50:00.740Z,42.02
2019-01-13T02:51:00.694Z,41.53
2019-01-13T02:52:00.650Z,41.82
2019-01-13T02:53:00.609Z,41.53
2019-01-13T02:54:00.562Z,41.82
2019-01-13T02:55:00.519Z,41.92
2019-01-13T02:56:00.473Z,41.92
2019-01-13T02:57:00.428Z,41.82
2019-01-13T02:58:00.385Z,42.11
2019-01-13T02:59:00.339Z,41.72
2019-01-13T03:00:00.297Z,41.92
2019-01-13T03:01:00.251Z,41.63
2019-01-13T03:02:00.212Z,41.53
2019-01-13T03:03:00.169Z,42.11
2019-01-13T03:04:00.122Z,42.11
2019-01-13T03:05:00.099Z,42.11
2019-01-13T03:06:00.032Z,42.02
2019-01-13T03:06:59.988Z,42.21
2019-01-13T03:07:59.949Z,42.21
2019-01-13T03:08:59.922Z,42.02
2019-01-13T03:09:59.857Z,42.30
2019-01-13T03:10:59.813Z,42.30
2019-01-13T03:11:59.764Z,42.21
2019-01-13T03:12:59.717Z,42.30
2019-01-13T03:13:59.673Z,42.21
2019-01-13T03:14:59.625Z,42.11
2019-01-13T03:15:59.582Z,42.30
2019-01-13T03:16:59.541Z,42.02
2019-01-13T03:17:59.498Z,41.82
2019-01-13T03:18:59.450Z,41.72
2019-01-13T03:19:59.405Z,41.82
2019-01-13T03:20:59.365Z,42.02
2019-01-13T03:21:59.308Z,41.92
2019-01-13T03:22:59.273Z,42.69
2019-01-13T03:23:59.229Z,42.49
2019-01-13T03:24:59.182Z,42.30
2019-01-13T08:42:16.169Z,43.12
2019-01-13T08:43:16.091Z,42.83
2019-01-13T08:45:09.985Z,43.12
2019-01-13T08:46:09.896Z,43.89
2019-01-13T08:47:09.844Z,43.21
2019-01-13T08:48:09.797Z,43.70
2019-01-13T08:49:09.770Z,42.83
2019-01-13T08:50:09.696Z,43.12
2019-01-13T08:51:09.693Z,43.02
2019-01-13T08:52:09.600Z,43.12
2019-01-13T08:53:09.591Z,43.12
2019-01-13T08:54:09.499Z,43.12
2019-01-13T08:55:09.456Z,43.12
2019-01-13T08:56:09.408Z,43.12
2019-01-13T08:57:09.359Z,42.93
2019-01-13T08:58:09.308Z,43.31
2019-01-13T08:59:09.266Z,43.41
2019-01-13T09:00:09.213Z,43.21
2019-01-13T09:01:09.205Z,42.93
2019-01-13T09:02:09.127Z,43.70
2019-01-13T09:03:09.080Z,43.41
2019-01-13T09:04:09.049Z,43.12
2019-01-13T09:05:08.991Z,43.12
2019-01-13T09:06:08.943Z,43.12
2019-01-13T09:07:08.894Z,43.12
2019-01-13T09:08:08.902Z,43.21
2019-01-13T09:09:08.805Z,43.31
2019-01-13T09:10:08.869Z,43.50
2019-01-13T09:11:08.715Z,43.50
2019-01-13T09:12:08.700Z,43.70
2019-01-13T09:13:08.635Z,43.50
2019-01-13T09:14:08.583Z,43.60
2019-01-13T09:15:08.722Z,43.91
2019-01-13T09:16:08.879Z,43.14
2019-01-13T09:17:08.453Z,43.91
2019-01-13T09:18:08.434Z,43.81
2019-01-13T09:19:08.356Z,43.81
2019-01-13T09:20:08.325Z,43.62
2019-01-13T09:21:08.267Z,43.72
2019-01-13T09:22:08.225Z,43.81
2019-01-13T09:23:08.179Z,43.81
2019-01-13T09:24:08.133Z,43.52
2019-01-13T09:25:08.088Z,43.72
2019-01-13T09:26:08.045Z,43.91
2019-01-13T09:27:07.991Z,42.94
2019-01-13T09:28:07.956Z,43.04
2019-01-13T09:29:07.912Z,43.24
2019-01-13T09:30:07.868Z,43.52
2019-01-13T09:31:07.823Z,43.43
2019-01-13T09:32:07.783Z,43.62
2019-01-13T09:33:07.737Z,43.52
2019-01-13T09:34:07.690Z,43.81
2019-01-13T09:35:07.661Z,44.01
2019-01-13T09:36:07.602Z,43.81
2019-01-13T09:37:07.562Z,43.72
2019-01-13T09:38:07.516Z,43.62
2019-01-13T09:39:07.470Z,43.72
2019-01-13T09:40:07.429Z,43.91
2019-01-13T09:41:07.383Z,43.52
2019-01-13T09:42:07.339Z,43.91
2019-01-13T09:43:07.286Z,43.52
2019-01-13T09:44:07.252Z,43.24
2019-01-13T09:45:07.202Z,43.06
2019-01-13T09:46:07.162Z,43.35
2019-01-13T09:47:07.164Z,43.81
2019-01-13T09:48:07.074Z,43.64
2019-01-13T09:49:07.033Z,43.74
2019-01-13T09:50:06.987Z,43.35
2019-01-13T09:51:06.942Z,43.84
2019-01-13T09:52:07.063Z,42.97
2019-01-13T09:53:06.860Z,42.97
2019-01-13T09:54:06.813Z,42.97
2019-01-13T09:55:06.761Z,42.87
2019-01-13T09:56:06.725Z,43.54
2019-01-13T09:57:06.684Z,44.03
2019-01-13T09:58:06.637Z,43.35
2019-01-13T09:59:06.596Z,42.97
2019-01-13T10:00:06.551Z,42.58
2019-01-13T10:01:06.509Z,42.56
2019-01-13T10:02:06.463Z,42.75
2019-01-13T10:03:06.419Z,42.46
2019-01-13T10:04:06.373Z,42.75
2019-01-13T10:05:06.331Z,42.85
2019-01-13T10:06:06.287Z,42.75
2019-01-13T10:07:06.243Z,42.56
2019-01-13T10:08:06.200Z,42.56
2019-01-13T10:09:06.156Z,42.56
2019-01-13T10:10:06.115Z,42.75
2019-01-13T10:11:06.069Z,42.56
2019-01-13T10:12:06.030Z,42.36
2019-01-13T10:13:05.984Z,42.46
2019-01-13T10:14:05.937Z,42.56
2019-01-13T10:15:05.892Z,43.04
2019-01-13T10:16:05.853Z,42.75
2019-01-13T10:17:05.800Z,42.66
2019-01-13T10:18:05.809Z,42.85
2019-01-13T10:19:05.723Z,42.56
2019-01-13T10:20:05.685Z,42.54
2019-01-13T10:21:05.636Z,43.91
2019-01-13T10:22:05.589Z,43.79
2019-01-13T10:23:05.547Z,43.62
2019-01-13T10:24:05.499Z,43.62
2019-01-13T10:25:05.454Z,43.91
2019-01-13T10:26:05.458Z,43.72
2019-01-13T10:27:05.376Z,43.62
2019-01-13T10:28:05.335Z,43.72
2019-01-13T10:29:06.669Z,43.72
2019-01-13T10:30:05.242Z,43.72
2019-01-13T10:31:05.207Z,43.43
2019-01-13T10:32:05.211Z,43.14
2019-01-13T10:33:05.117Z,43.14
2019-01-13T10:34:05.095Z,43.14
2019-01-13T10:35:05.023Z,43.81
2019-01-13T10:36:05.001Z,43.33
2019-01-13T10:37:04.935Z,43.04
2019-01-13T10:38:04.894Z,43.24
2019-01-13T10:39:04.850Z,43.04
2019-01-13T10:40:04.807Z,42.85
2019-01-13T10:41:04.761Z,43.04
2019-01-13T10:42:04.717Z,43.14
2019-01-13T10:43:04.673Z,43.06
2019-01-13T10:44:04.711Z,42.77
2019-01-13T10:45:04.584Z,42.48
2019-01-13T10:46:04.542Z,42.87
2019-01-13T10:47:04.498Z,42.58
2019-01-13T10:48:04.506Z,42.58
2019-01-13T10:49:04.413Z,42.87
2019-01-13T10:50:04.368Z,42.58
2019-01-13T10:51:04.323Z,42.58
2019-01-13T10:52:04.300Z,43.06
2019-01-13T10:53:04.235Z,42.68
2019-01-13T10:54:09.121Z,42.58
2019-01-13T10:55:04.149Z,42.87
2019-01-13T10:56:04.104Z,42.48
2019-01-13T10:57:04.060Z,42.77
2019-01-13T10:58:04.020Z,44.03
2019-01-13T11:01:30.220Z,42.77
2019-01-13T11:02:30.146Z,42.58
2019-01-13T11:04:22.963Z,42.87
2019-01-13T11:05:22.890Z,42.87
2019-01-13T11:07:16.193Z,42.77
2019-01-13T11:08:16.143Z,42.39
2019-01-13T11:10:09.474Z,42.58
2019-01-13T11:11:09.383Z,42.68
2019-01-13T11:13:02.662Z,42.87
2019-01-13T11:14:02.602Z,42.87
2019-01-13T11:15:55.891Z,42.87
2019-01-13T11:16:55.822Z,42.68
2019-01-13T11:18:48.656Z,42.97
2019-01-13T11:19:48.576Z,43.06
2019-01-13T11:21:41.402Z,42.87
2019-01-13T11:22:41.334Z,43.16
2019-01-13T11:24:34.194Z,43.26
2019-01-13T11:25:34.098Z,42.87
2019-01-13T11:27:26.884Z,43.06
2019-01-13T11:28:26.843Z,42.97
2019-01-13T11:30:20.180Z,43.26
2019-01-13T11:31:20.110Z,42.77
2019-01-13T11:33:13.419Z,43.08
2019-01-13T11:34:13.376Z,43.28
2019-01-13T11:36:06.699Z,42.97
2019-01-13T11:37:06.613Z,43.06
2019-01-13T11:38:59.946Z,43.06
2019-01-13T11:39:59.874Z,43.06
2019-01-13T11:41:53.204Z,43.16
2019-01-13T11:42:53.139Z,42.97
2019-01-13T11:44:45.971Z,43.64
2019-01-13T11:45:45.889Z,43.74
2019-01-13T11:47:39.313Z,43.66
2019-01-13T11:48:39.010Z,43.45
2019-01-13T11:50:31.892Z,43.66
2019-01-13T11:51:31.767Z,43.85
2019-01-13T11:53:24.567Z,43.66
2019-01-13T11:54:24.578Z,43.93
2019-01-13T11:56:17.846Z,43.57
2019-01-13T11:57:17.818Z,43.37
2019-01-13T11:59:11.042Z,43.66
2019-01-13T12:00:11.026Z,43.85
2019-01-13T12:01:10.964Z,43.85
2019-01-13T12:02:10.901Z,43.28
2019-01-13T12:03:16.778Z,43.06
2019-01-13T12:04:10.817Z,43.08
2019-01-13T12:05:11.376Z,43.18
2019-01-13T12:06:11.130Z,43.06
2019-01-13T12:07:11.507Z,43.08
2019-01-13T12:08:11.162Z,43.08
2019-01-13T12:09:10.660Z,43.08
2019-01-13T12:10:10.788Z,43.18
2019-01-13T12:11:10.638Z,43.16
2019-01-13T12:12:10.470Z,42.79
2019-01-13T12:13:10.427Z,42.87
2019-01-13T12:14:10.385Z,43.06
2019-01-13T12:15:10.371Z,42.58
2019-01-13T12:16:11.620Z,42.87
2019-01-13T12:17:10.255Z,42.97
2019-01-13T12:18:10.262Z,42.97
2019-01-13T12:19:10.160Z,42.58
2019-01-13T12:20:10.122Z,42.68
2019-01-13T12:21:10.078Z,42.58
2019-01-13T12:22:10.033Z,42.58
2019-01-13T12:23:09.991Z,42.60
2019-01-13T12:24:09.978Z,42.77
2019-01-13T12:25:10.666Z,42.60
2019-01-13T12:26:09.893Z,42.77
2019-01-13T12:27:09.816Z,42.50
2019-01-13T12:28:09.771Z,42.70
2019-01-13T12:29:10.666Z,42.79
2019-01-13T12:30:10.088Z,42.68
2019-01-13T12:31:09.642Z,42.48
2019-01-13T12:32:09.594Z,42.50
2019-01-13T12:33:09.569Z,42.39
2019-01-13T12:34:09.513Z,42.48
2019-01-13T12:35:09.510Z,42.50
2019-01-13T12:36:09.428Z,42.41
2019-01-13T12:37:09.387Z,42.70
2019-01-13T12:38:09.335Z,42.41
2019-01-13T12:39:09.302Z,42.60
2019-01-13T12:40:09.253Z,42.60
2019-01-13T12:41:09.216Z,42.70
2019-01-13T12:42:09.163Z,42.60
2019-01-13T12:43:09.124Z,42.68
2019-01-13T12:44:09.217Z,42.60
2019-01-13T12:45:09.038Z,42.87
2019-01-13T12:46:08.988Z,42.60
2019-01-13T12:47:09.046Z,42.68
2019-01-13T12:48:08.911Z,42.58
2019-01-13T12:49:08.865Z,42.68
2019-01-13T12:50:08.813Z,42.50
2019-01-13T12:51:08.773Z,42.58
2019-01-13T12:52:08.758Z,42.68
2019-01-13T12:53:08.701Z,42.68
2019-01-13T12:54:08.638Z,42.58
2019-01-13T12:55:08.603Z,42.68
2019-01-13T12:56:08.561Z,42.39
2019-01-13T12:57:08.632Z,42.58
2019-01-13T12:58:08.521Z,42.68
2019-01-13T12:59:08.424Z,42.87
2019-01-13T13:00:08.444Z,42.68
2019-01-13T13:01:08.337Z,42.87
2019-01-13T13:02:08.335Z,42.39
2019-01-13T13:03:08.283Z,42.58
2019-01-13T13:04:09.232Z,42.97
2019-01-13T13:05:08.712Z,42.68
2019-01-13T13:06:08.134Z,42.87
2019-01-13T13:07:08.189Z,42.77
2019-01-13T13:08:08.041Z,42.58
2019-01-13T13:09:07.990Z,42.68
2019-01-13T13:10:07.945Z,42.68
2019-01-13T13:11:07.902Z,43.16
2019-01-13T13:12:07.902Z,43.16
2019-01-13T13:13:07.810Z,43.26
2019-01-13T13:14:07.770Z,43.93
2019-01-13T13:15:07.728Z,43.54
2019-01-13T13:16:07.719Z,43.93
2019-01-13T13:17:07.643Z,43.93
2019-01-13T13:18:07.606Z,43.54
2019-01-13T13:19:07.553Z,42.87
2019-01-13T13:20:07.506Z,43.06
2019-01-13T13:21:07.466Z,42.58
2019-01-13T13:22:07.547Z,43.06
2019-01-13T13:23:07.391Z,42.58
2019-01-13T13:24:07.352Z,42.58
2019-01-13T13:25:07.292Z,43.54
2019-01-13T13:26:07.251Z,43.16
2019-01-13T13:27:07.203Z,43.06
2019-01-13T13:28:07.158Z,43.06
2019-01-13T13:29:07.115Z,42.39
2019-01-13T13:30:07.084Z,43.16
2019-01-13T13:31:07.034Z,42.87
2019-01-13T13:32:07.007Z,43.06
2019-01-13T13:33:06.949Z,43.16
2019-01-13T13:34:06.893Z,42.97
2019-01-13T13:35:06.851Z,43.16
2019-01-13T13:36:06.861Z,43.26
2019-01-13T13:37:06.766Z,42.87
2019-01-13T13:38:06.726Z,42.97
2019-01-13T13:39:06.679Z,43.16
2019-01-13T13:40:06.680Z,43.16
2019-01-13T13:41:06.598Z,42.97
2019-01-13T13:42:06.553Z,43.16
2019-01-13T13:43:06.526Z,43.35
2019-01-13T13:44:06.464Z,43.16
2019-01-13T13:45:06.425Z,43.06
2019-01-13T13:46:06.395Z,43.16
2019-01-13T13:47:06.336Z,43.16
2019-01-13T13:48:06.314Z,43.26
2019-01-13T13:49:06.249Z,43.16
2019-01-13T13:50:06.221Z,43.06
2019-01-13T13:51:06.161Z,43.06
2019-01-13T13:52:06.179Z,43.16
2019-01-13T13:53:06.079Z,44.03
2019-01-13T13:54:06.026Z,43.54
2019-01-13T13:55:05.981Z,43.54
2019-01-13T13:56:05.937Z,43.85
2019-01-13T13:57:05.902Z,43.64
2019-01-13T13:58:05.851Z,42.87
2019-01-13T13:59:05.804Z,43.54
2019-01-13T14:00:05.767Z,43.35
2019-01-13T14:01:05.724Z,43.93
2019-01-13T14:02:05.678Z,43.54
2019-01-13T14:03:05.632Z,43.26
2019-01-13T14:04:05.591Z,42.97
2019-01-13T14:05:05.552Z,43.06
2019-01-13T14:06:05.504Z,43.16
2019-01-13T14:07:05.459Z,43.06
2019-01-13T14:08:05.416Z,42.97
2019-01-13T14:09:05.376Z,43.16
2019-01-13T14:10:05.331Z,42.97
2019-01-13T14:11:05.287Z,43.16
2019-01-13T14:12:05.244Z,43.26
2019-01-13T14:13:05.197Z,43.16
2019-01-13T14:14:05.157Z,42.87
2019-01-13T14:15:05.114Z,42.87
2019-01-13T14:16:05.065Z,42.77
2019-01-13T14:17:05.027Z,42.99
2019-01-13T14:18:04.977Z,42.99
2019-01-13T14:19:04.980Z,43.26
2019-01-13T14:20:04.892Z,42.41
2019-01-13T14:21:04.853Z,42.70
2019-01-13T14:22:05.036Z,42.39
2019-01-13T14:23:04.764Z,42.68
2019-01-13T14:24:04.717Z,42.58
2019-01-13T14:25:04.676Z,42.58
2019-01-13T14:26:04.628Z,42.60
2019-01-13T14:27:04.591Z,42.68
2019-01-13T14:28:04.547Z,42.87
2019-01-13T14:29:04.501Z,42.58
2019-01-13T14:30:04.456Z,42.87
2019-01-13T14:31:04.415Z,42.58
2019-01-13T14:32:04.372Z,42.58
2019-01-13T14:33:04.327Z,42.87
2019-01-13T14:34:04.301Z,42.58
2019-01-13T14:35:04.245Z,42.79
2019-01-13T14:36:04.201Z,42.77
2019-01-13T14:37:04.156Z,42.48
2019-01-13T14:38:04.106Z,42.58
2019-01-13T14:39:04.069Z,42.97
2019-01-13T14:40:04.053Z,42.48
2019-01-13T14:41:03.981Z,42.58
2019-01-13T14:42:03.954Z,42.58
2019-01-13T14:43:03.891Z,42.60
2019-01-13T14:44:03.851Z,42.58
2019-01-13T14:45:03.810Z,42.70
2019-01-13T14:46:03.762Z,42.89
2019-01-13T14:47:03.720Z,42.99
2019-01-13T14:48:03.678Z,43.06
2019-01-13T14:49:03.689Z,43.06
2019-01-13T14:50:03.621Z,43.08
2019-01-13T14:51:03.618Z,43.16
2019-01-13T14:52:03.546Z,43.18
2019-01-13T14:53:03.467Z,43.16
2019-01-13T14:54:03.439Z,43.06
2019-01-13T14:55:03.430Z,42.58
2019-01-13T14:56:03.416Z,42.77
2019-01-13T14:57:03.279Z,42.58
2019-01-13T14:58:03.246Z,42.77
2019-01-13T14:59:03.312Z,42.70
2019-01-13T15:00:03.151Z,42.48
2019-01-13T15:01:03.112Z,42.68
2019-01-13T15:02:03.062Z,42.68
2019-01-13T15:03:03.045Z,42.58
2019-01-13T15:04:02.974Z,42.68
2019-01-13T15:05:02.932Z,42.68
2019-01-13T15:06:02.891Z,42.79
2019-01-13T15:07:02.882Z,42.68
2019-01-13T15:08:02.806Z,42.39
2019-01-13T15:09:02.801Z,42.60
2019-01-13T15:10:02.714Z,42.68
2019-01-13T15:11:02.672Z,42.68
2019-01-13T15:12:02.634Z,42.50
2019-01-13T15:13:02.595Z,42.58
2019-01-13T15:14:02.543Z,42.70
2019-01-13T15:15:02.576Z,42.58
2019-01-13T15:16:02.456Z,42.87
2019-01-13T15:17:02.422Z,42.58
2019-01-13T15:18:02.369Z,42.60
2019-01-13T15:19:02.325Z,42.89
2019-01-13T15:20:02.285Z,42.60
2019-01-13T15:21:02.236Z,42.60
2019-01-13T15:22:02.196Z,42.60
2019-01-13T15:23:02.152Z,42.79
2019-01-13T15:24:02.109Z,42.70
2019-01-13T15:25:02.068Z,42.70
2019-01-13T15:26:02.022Z,42.60
2019-01-13T15:27:01.982Z,42.50
2019-01-13T15:28:01.936Z,42.60
2019-01-13T15:29:01.891Z,42.79
2019-01-13T15:30:01.849Z,42.70
2019-01-13T15:31:01.805Z,42.79
2019-01-13T15:32:01.764Z,42.60
2019-01-13T15:33:01.750Z,42.70
2019-01-13T15:34:07.220Z,42.60
2019-01-13T15:35:01.647Z,42.70
2019-01-13T15:36:01.588Z,42.70
2019-01-13T15:37:01.582Z,42.60
2019-01-13T15:38:01.499Z,42.89
2019-01-13T15:39:01.457Z,42.89
2019-01-13T15:40:01.415Z,42.70
2019-01-13T15:41:01.373Z,42.70
2019-01-13T15:42:01.362Z,42.79
2019-01-13T15:43:01.338Z,42.60
2019-01-13T15:44:01.246Z,42.70
2019-01-13T15:45:01.196Z,42.79
2019-01-13T15:46:01.152Z,42.60
2019-01-13T15:47:01.108Z,42.70
2019-01-13T15:48:01.112Z,42.60
2019-01-13T15:49:01.021Z,42.70
2019-01-13T15:50:00.986Z,42.50
2019-01-13T15:51:00.935Z,42.50
2019-01-13T15:52:00.898Z,42.60
2019-01-13T15:53:00.850Z,42.79
2019-01-13T15:54:00.852Z,42.60
2019-01-13T15:55:00.760Z,42.50
2019-01-13T15:56:00.719Z,42.60
2019-01-13T15:57:00.673Z,42.60
2019-01-13T15:58:00.631Z,42.60
2019-01-13T15:59:00.585Z,42.60
2019-01-13T16:00:00.544Z,43.18
2019-01-13T16:01:00.499Z,44.15
2019-01-13T16:02:00.455Z,43.18
2019-01-13T16:03:00.417Z,43.18
2019-01-13T16:04:01.268Z,43.28
2019-01-13T16:05:00.344Z,43.08
2019-01-13T16:06:00.282Z,43.37
2019-01-13T16:07:00.236Z,43.08
2019-01-13T16:08:00.196Z,43.08
2019-01-13T16:09:00.151Z,43.28
2019-01-13T16:10:00.175Z,43.08
2019-01-13T16:11:00.062Z,43.18
2019-01-13T16:12:00.022Z,43.76
2019-01-13T16:12:59.979Z,43.76
2019-01-13T16:13:59.934Z,43.85
2019-01-13T16:14:59.917Z,43.76
2019-01-13T16:15:59.843Z,43.76
2019-01-13T16:16:59.837Z,43.76
2019-01-13T16:17:59.788Z,43.76
2019-01-13T16:18:59.728Z,43.57
2019-01-13T16:19:59.675Z,43.57
2019-01-13T16:20:59.631Z,43.66
2019-01-13T16:21:59.616Z,43.28
2019-01-13T16:22:59.542Z,43.57
2019-01-13T16:23:59.493Z,43.47
2019-01-13T16:24:59.450Z,43.76
2019-01-13T16:25:59.412Z,43.28
2019-01-13T16:26:59.370Z,43.57
2019-01-13T16:27:59.326Z,43.37
2019-01-13T16:28:59.291Z,43.66
2019-01-13T16:29:59.238Z,43.57
2019-01-13T16:30:59.194Z,43.66
2019-01-13T16:31:59.153Z,43.47
2019-01-13T16:32:59.112Z,43.57
2019-01-13T16:33:59.065Z,43.66
2019-01-13T16:34:59.057Z,43.37
2019-01-13T16:35:58.998Z,43.57
2019-01-13T16:36:58.928Z,43.28
2019-01-13T16:37:58.893Z,43.37
2019-01-13T16:38:58.876Z,43.47
2019-01-13T16:39:58.801Z,43.76
2019-01-13T16:40:58.759Z,43.66
2019-01-13T16:41:58.712Z,44.34
2019-01-13T16:42:58.675Z,44.15
2019-01-13T16:43:58.684Z,44.43
2019-01-13T16:44:58.581Z,43.95
2019-01-13T16:45:58.540Z,44.05
2019-01-13T16:46:58.498Z,44.05
2019-01-13T16:47:58.465Z,44.05
2019-01-13T16:48:58.417Z,43.37
2019-01-13T16:49:58.375Z,43.57
2019-01-13T16:50:58.330Z,43.37
2019-01-13T16:51:58.287Z,43.57
2019-01-13T16:52:58.241Z,44.05
2019-01-13T16:53:58.220Z,43.76
2019-01-13T16:54:58.156Z,44.05
2019-01-13T16:55:58.109Z,43.57
2019-01-13T16:56:58.255Z,43.37
2019-01-13T16:57:58.023Z,43.66
2019-01-13T16:58:57.980Z,43.66
2019-01-13T16:59:57.981Z,43.57
2019-01-13T17:00:57.894Z,43.57
2019-01-13T17:01:58.075Z,43.66
2019-01-13T17:02:57.807Z,43.57
2019-01-13T17:03:57.787Z,43.76
2019-01-13T17:04:57.721Z,43.57
2019-01-13T17:05:57.715Z,43.57
2019-01-13T17:06:57.648Z,43.76
2019-01-13T17:07:57.590Z,43.76
2019-01-13T17:08:57.549Z,43.76
2019-01-13T17:09:57.504Z,43.76
2019-01-13T17:10:57.460Z,43.66
2019-01-13T17:11:57.416Z,43.76
2019-01-13T17:12:57.374Z,43.66
2019-01-13T17:13:57.332Z,43.76
2019-01-13T17:14:57.286Z,43.76
2019-01-13T17:15:57.245Z,43.76
2019-01-13T17:16:57.199Z,43.85
2019-01-13T17:17:57.156Z,43.57
2019-01-13T17:18:57.113Z,44.05
2019-01-13T17:19:57.070Z,43.37
2019-01-13T17:20:57.027Z,43.95
2019-01-13T17:21:57.007Z,44.05
2019-01-13T17:22:56.938Z,43.57
2019-01-13T17:23:56.894Z,43.57
2019-01-13T17:24:56.861Z,43.57
2019-01-13T17:25:56.809Z,43.28
2019-01-13T17:26:56.770Z,43.18
2019-01-13T17:27:56.722Z,42.99
2019-01-13T17:28:56.684Z,43.18
2019-01-13T17:29:57.726Z,42.70
2019-01-13T17:30:56.616Z,42.41
2019-01-13T17:31:56.547Z,42.41
2019-01-13T17:32:56.507Z,42.60
2019-01-13T17:33:56.460Z,42.89
2019-01-13T17:34:56.487Z,42.60
2019-01-13T17:35:56.471Z,43.18
2019-01-13T17:36:56.331Z,43.08
2019-01-13T17:37:56.287Z,42.99
2019-01-13T17:38:56.242Z,43.08
2019-01-13T17:39:56.201Z,42.41
2019-01-13T17:40:56.159Z,43.18
2019-01-13T17:41:56.112Z,42.89
2019-01-13T17:42:56.070Z,42.41
2019-01-13T17:43:56.024Z,42.41
2019-01-13T17:44:55.989Z,42.70
2019-01-13T17:45:55.938Z,42.41
2019-01-13T17:46:55.895Z,42.89
2019-01-13T17:47:55.850Z,42.60
2019-01-13T17:48:55.809Z,42.70
2019-01-13T17:49:55.776Z,42.70
2019-01-13T17:50:55.724Z,42.70
2019-01-13T17:51:55.678Z,42.70
2019-01-13T17:52:56.230Z,42.60
2019-01-13T17:53:55.595Z,42.79
2019-01-13T17:54:55.551Z,42.99
2019-01-13T17:55:56.821Z,42.79
2019-01-13T17:56:55.531Z,42.60
2019-01-13T17:57:55.420Z,42.60
2019-01-13T17:58:55.381Z,42.60
2019-01-13T17:59:55.771Z,42.79
2019-01-13T18:00:55.381Z,42.89
2019-01-13T18:01:55.244Z,42.70
2019-01-13T18:02:55.205Z,42.70
2019-01-13T18:03:55.161Z,42.50
2019-01-13T18:04:55.118Z,42.70
2019-01-13T18:05:55.073Z,42.70
2019-01-13T18:06:55.026Z,42.79
2019-01-13T18:07:55.108Z,42.70
2019-01-13T18:08:55.033Z,42.70
2019-01-13T18:09:54.891Z,42.79
2019-01-13T18:10:54.878Z,42.70
2019-01-13T18:11:54.804Z,42.70
2019-01-13T18:12:54.760Z,42.70
2019-01-13T18:13:54.725Z,42.60
2019-01-13T18:14:54.674Z,42.41
2019-01-13T18:15:54.788Z,42.70
2019-01-13T18:16:54.589Z,42.41
2019-01-13T18:17:54.579Z,42.41
2019-01-13T18:18:54.515Z,42.50
2019-01-13T18:19:54.617Z,42.50
2019-01-13T18:20:54.416Z,42.60
2019-01-13T18:21:54.371Z,42.50
2019-01-13T18:22:54.334Z,42.60
2019-01-13T18:23:54.289Z,42.70
2019-01-13T18:24:54.537Z,42.70
2019-01-13T18:25:54.237Z,42.60
2019-01-13T18:26:54.163Z,42.70
2019-01-13T18:27:54.121Z,42.70
2019-01-13T18:28:54.363Z,42.70